sensor_id;sensor_type;location;lat;lon;timestamp;P1;durP1;ratioP1;P2;durP2;ratioP2
38603;SDS011;24924;50.054;8.790;2024-01-30T00:01:44;29.43;;;16.20;;
38603;SDS011;24924;50.054;8.790;2024-01-30T00:04:10;23.75;;;14.73;;
38603;SDS011;24924;50.054;8.790;2024-01-30T00:06:36;24.70;;;14.60;;
38603;SDS011;24924;50.054;8.790;2024-01-30T00:09:02;30.67;;;15.03;;
38603;SDS011;24924;50.054;8.790;2024-01-30T00:11:28;23.58;;;14.88;;
38603;SDS011;24924;50.054;8.790;2024-01-30T00:13:54;26.80;;;14.88;;
38603;SDS011;24924;50.054;8.790;2024-01-30T00:16:22;22.92;;;14.25;;
38603;SDS011;24924;50.054;8.790;2024-01-30T00:18:52;24.80;;;14.30;;
38603;SDS011;24924;50.054;8.790;2024-01-30T00:21:18;20.85;;;13.77;;
38603;SDS011;24924;50.054;8.790;2024-01-30T00:23:45;22.50;;;13.68;;
38603;SDS011;24924;50.054;8.790;2024-01-30T00:26:11;23.70;;;14.20;;
38603;SDS011;24924;50.054;8.790;2024-01-30T00:28:37;24.97;;;14.53;;
38603;SDS011;24924;50.054;8.790;2024-01-30T00:31:03;20.75;;;13.43;;
38603;SDS011;24924;50.054;8.790;2024-01-30T00:33:29;21.50;;;14.43;;
38603;SDS011;24924;50.054;8.790;2024-01-30T00:35:56;19.30;;;12.82;;
38603;SDS011;24924;50.054;8.790;2024-01-30T00:38:22;23.55;;;13.80;;
38603;SDS011;24924;50.054;8.790;2024-01-30T00:40:48;23.80;;;14.33;;
38603;SDS011;24924;50.054;8.790;2024-01-30T00:43:14;23.02;;;14.07;;
38603;SDS011;24924;50.054;8.790;2024-01-30T00:45:41;20.98;;;13.60;;
38603;SDS011;24924;50.054;8.790;2024-01-30T00:48:08;21.02;;;14.20;;
38603;SDS011;24924;50.054;8.790;2024-01-30T00:50:34;22.83;;;14.47;;
38603;SDS011;24924;50.054;8.790;2024-01-30T00:53:00;23.88;;;14.77;;
38603;SDS011;24924;50.054;8.790;2024-01-30T00:55:26;23.35;;;15.10;;
38603;SDS011;24924;50.054;8.790;2024-01-30T00:57:52;22.63;;;13.70;;
38603;SDS011;24924;50.054;8.790;2024-01-30T01:00:18;21.67;;;13.45;;
38603;SDS011;24924;50.054;8.790;2024-01-30T01:02:45;22.73;;;14.13;;
38603;SDS011;24924;50.054;8.790;2024-01-30T01:05:11;21.10;;;14.43;;
38603;SDS011;24924;50.054;8.790;2024-01-30T01:07:37;22.30;;;14.07;;
38603;SDS011;24924;50.054;8.790;2024-01-30T01:10:02;22.00;;;14.02;;
38603;SDS011;24924;50.054;8.790;2024-01-30T01:12:29;20.52;;;13.75;;
38603;SDS011;24924;50.054;8.790;2024-01-30T01:14:54;21.00;;;14.13;;
38603;SDS011;24924;50.054;8.790;2024-01-30T01:17:20;19.25;;;13.15;;
38603;SDS011;24924;50.054;8.790;2024-01-30T01:19:46;19.53;;;13.30;;
38603;SDS011;24924;50.054;8.790;2024-01-30T01:22:12;20.23;;;13.48;;
38603;SDS011;24924;50.054;8.790;2024-01-30T01:24:38;23.98;;;13.60;;
38603;SDS011;24924;50.054;8.790;2024-01-30T01:27:04;21.65;;;13.13;;
38603;SDS011;24924;50.054;8.790;2024-01-30T01:29:31;20.20;;;13.07;;
38603;SDS011;24924;50.054;8.790;2024-01-30T01:31:57;19.52;;;13.25;;
38603;SDS011;24924;50.054;8.790;2024-01-30T01:34:23;22.00;;;13.95;;
38603;SDS011;24924;50.054;8.790;2024-01-30T01:36:49;22.05;;;13.57;;
38603;SDS011;24924;50.054;8.790;2024-01-30T01:39:16;21.17;;;13.68;;
38603;SDS011;24924;50.054;8.790;2024-01-30T01:41:42;21.03;;;13.03;;
38603;SDS011;24924;50.054;8.790;2024-01-30T01:44:08;20.48;;;13.05;;
38603;SDS011;24924;50.054;8.790;2024-01-30T01:46:35;20.67;;;12.68;;
38603;SDS011;24924;50.054;8.790;2024-01-30T01:49:02;19.38;;;12.45;;
38603;SDS011;24924;50.054;8.790;2024-01-30T01:51:30;19.60;;;13.07;;
38603;SDS011;24924;50.054;8.790;2024-01-30T01:53:58;20.30;;;12.53;;
38603;SDS011;24924;50.054;8.790;2024-01-30T01:56:27;19.02;;;13.70;;
38603;SDS011;24924;50.054;8.790;2024-01-30T01:58:55;19.08;;;13.30;;
38603;SDS011;24924;50.054;8.790;2024-01-30T02:01:23;19.00;;;13.05;;
38603;SDS011;24924;50.054;8.790;2024-01-30T02:03:50;19.92;;;13.80;;
38603;SDS011;24924;50.054;8.790;2024-01-30T02:06:16;21.33;;;13.03;;
38603;SDS011;24924;50.054;8.790;2024-01-30T02:08:42;19.00;;;13.18;;
38603;SDS011;24924;50.054;8.790;2024-01-30T02:11:08;23.45;;;14.13;;
38603;SDS011;24924;50.054;8.790;2024-01-30T02:13:38;24.83;;;13.70;;
38603;SDS011;24924;50.054;8.790;2024-01-30T02:16:04;24.20;;;13.23;;
38603;SDS011;24924;50.054;8.790;2024-01-30T02:18:30;20.23;;;12.18;;
38603;SDS011;24924;50.054;8.790;2024-01-30T02:20:56;20.77;;;12.60;;
38603;SDS011;24924;50.054;8.790;2024-01-30T02:23:26;19.47;;;12.70;;
38603;SDS011;24924;50.054;8.790;2024-01-30T02:25:53;22.27;;;13.25;;
38603;SDS011;24924;50.054;8.790;2024-01-30T02:28:19;18.65;;;12.30;;
38603;SDS011;24924;50.054;8.790;2024-01-30T02:30:45;21.23;;;13.35;;
38603;SDS011;24924;50.054;8.790;2024-01-30T02:33:12;19.13;;;12.25;;
38603;SDS011;24924;50.054;8.790;2024-01-30T02:35:39;20.77;;;12.30;;
38603;SDS011;24924;50.054;8.790;2024-01-30T02:38:05;19.65;;;12.30;;
38603;SDS011;24924;50.054;8.790;2024-01-30T02:40:31;18.20;;;12.02;;
38603;SDS011;24924;50.054;8.790;2024-01-30T02:43:01;22.58;;;12.68;;
38603;SDS011;24924;50.054;8.790;2024-01-30T02:45:27;18.07;;;11.80;;
38603;SDS011;24924;50.054;8.790;2024-01-30T02:47:53;19.63;;;12.77;;
38603;SDS011;24924;50.054;8.790;2024-01-30T02:50:19;18.85;;;12.85;;
38603;SDS011;24924;50.054;8.790;2024-01-30T02:52:45;17.73;;;12.20;;
38603;SDS011;24924;50.054;8.790;2024-01-30T02:55:11;17.73;;;12.93;;
38603;SDS011;24924;50.054;8.790;2024-01-30T02:57:38;20.25;;;12.70;;
38603;SDS011;24924;50.054;8.790;2024-01-30T03:00:04;19.83;;;12.90;;
38603;SDS011;24924;50.054;8.790;2024-01-30T03:02:34;18.30;;;11.70;;
38603;SDS011;24924;50.054;8.790;2024-01-30T03:05:01;18.73;;;12.10;;
38603;SDS011;24924;50.054;8.790;2024-01-30T03:07:26;21.90;;;13.13;;
38603;SDS011;24924;50.054;8.790;2024-01-30T03:09:52;19.02;;;12.13;;
38603;SDS011;24924;50.054;8.790;2024-01-30T03:12:21;19.33;;;12.48;;
38603;SDS011;24924;50.054;8.790;2024-01-30T03:14:47;18.43;;;12.37;;
38603;SDS011;24924;50.054;8.790;2024-01-30T03:17:13;18.73;;;12.38;;
38603;SDS011;24924;50.054;8.790;2024-01-30T03:19:39;18.52;;;12.23;;
38603;SDS011;24924;50.054;8.790;2024-01-30T03:22:06;21.00;;;11.77;;
38603;SDS011;24924;50.054;8.790;2024-01-30T03:24:32;17.10;;;12.27;;
38603;SDS011;24924;50.054;8.790;2024-01-30T03:26:57;18.35;;;12.05;;
38603;SDS011;24924;50.054;8.790;2024-01-30T03:29:23;20.55;;;12.40;;
38603;SDS011;24924;50.054;8.790;2024-01-30T03:31:49;19.53;;;12.73;;
38603;SDS011;24924;50.054;8.790;2024-01-30T03:34:15;17.70;;;12.57;;
38603;SDS011;24924;50.054;8.790;2024-01-30T03:36:41;20.63;;;12.95;;
38603;SDS011;24924;50.054;8.790;2024-01-30T03:39:07;19.25;;;12.60;;
38603;SDS011;24924;50.054;8.790;2024-01-30T03:41:33;21.00;;;12.50;;
38603;SDS011;24924;50.054;8.790;2024-01-30T03:43:59;18.58;;;12.32;;
38603;SDS011;24924;50.054;8.790;2024-01-30T03:46:25;19.67;;;12.43;;
38603;SDS011;24924;50.054;8.790;2024-01-30T03:48:51;20.73;;;11.73;;
38603;SDS011;24924;50.054;8.790;2024-01-30T03:51:17;19.10;;;11.95;;
38603;SDS011;24924;50.054;8.790;2024-01-30T03:53:43;20.90;;;12.35;;
38603;SDS011;24924;50.054;8.790;2024-01-30T03:56:09;19.88;;;12.57;;
38603;SDS011;24924;50.054;8.790;2024-01-30T03:58:35;21.13;;;12.30;;
38603;SDS011;24924;50.054;8.790;2024-01-30T04:01:01;20.95;;;12.90;;
38603;SDS011;24924;50.054;8.790;2024-01-30T04:03:27;17.48;;;11.68;;
38603;SDS011;24924;50.054;8.790;2024-01-30T04:05:53;19.23;;;12.53;;
38603;SDS011;24924;50.054;8.790;2024-01-30T04:08:19;18.50;;;11.77;;
38603;SDS011;24924;50.054;8.790;2024-01-30T04:10:46;18.58;;;12.23;;
38603;SDS011;24924;50.054;8.790;2024-01-30T04:13:12;19.45;;;12.77;;
38603;SDS011;24924;50.054;8.790;2024-01-30T04:15:38;19.90;;;12.23;;
38603;SDS011;24924;50.054;8.790;2024-01-30T04:18:04;18.67;;;11.73;;
38603;SDS011;24924;50.054;8.790;2024-01-30T04:20:30;18.75;;;12.23;;
38603;SDS011;24924;50.054;8.790;2024-01-30T04:22:56;19.38;;;12.05;;
38603;SDS011;24924;50.054;8.790;2024-01-30T04:25:22;18.80;;;12.05;;
38603;SDS011;24924;50.054;8.790;2024-01-30T04:27:48;17.33;;;11.57;;
38603;SDS011;24924;50.054;8.790;2024-01-30T04:30:14;19.25;;;12.75;;
38603;SDS011;24924;50.054;8.790;2024-01-30T04:32:40;19.90;;;12.45;;
38603;SDS011;24924;50.054;8.790;2024-01-30T04:35:06;19.80;;;12.90;;
38603;SDS011;24924;50.054;8.790;2024-01-30T04:37:32;19.93;;;12.60;;
38603;SDS011;24924;50.054;8.790;2024-01-30T04:39:58;18.13;;;12.45;;
38603;SDS011;24924;50.054;8.790;2024-01-30T04:42:24;19.13;;;12.07;;
38603;SDS011;24924;50.054;8.790;2024-01-30T04:44:50;18.70;;;12.60;;
38603;SDS011;24924;50.054;8.790;2024-01-30T04:47:16;21.57;;;12.40;;
38603;SDS011;24924;50.054;8.790;2024-01-30T04:49:42;18.27;;;12.50;;
38603;SDS011;24924;50.054;8.790;2024-01-30T04:52:08;18.60;;;12.45;;
38603;SDS011;24924;50.054;8.790;2024-01-30T04:54:34;18.03;;;12.60;;
38603;SDS011;24924;50.054;8.790;2024-01-30T04:57:01;20.90;;;13.13;;
38603;SDS011;24924;50.054;8.790;2024-01-30T04:59:27;18.85;;;12.38;;
38603;SDS011;24924;50.054;8.790;2024-01-30T05:01:53;19.45;;;12.57;;
38603;SDS011;24924;50.054;8.790;2024-01-30T05:04:19;20.05;;;13.30;;
38603;SDS011;24924;50.054;8.790;2024-01-30T05:06:45;21.97;;;12.67;;
38603;SDS011;24924;50.054;8.790;2024-01-30T05:09:11;17.92;;;10.80;;
38603;SDS011;24924;50.054;8.790;2024-01-30T05:11:38;19.20;;;12.20;;
38603;SDS011;24924;50.054;8.790;2024-01-30T05:14:04;18.27;;;11.43;;
38603;SDS011;24924;50.054;8.790;2024-01-30T05:16:31;16.47;;;11.43;;
38603;SDS011;24924;50.054;8.790;2024-01-30T05:18:57;19.05;;;12.55;;
38603;SDS011;24924;50.054;8.790;2024-01-30T05:21:23;18.10;;;12.00;;
38603;SDS011;24924;50.054;8.790;2024-01-30T05:23:49;17.85;;;12.35;;
38603;SDS011;24924;50.054;8.790;2024-01-30T05:26:15;17.73;;;12.07;;
38603;SDS011;24924;50.054;8.790;2024-01-30T05:28:41;17.85;;;11.98;;
38603;SDS011;24924;50.054;8.790;2024-01-30T05:31:10;19.42;;;12.73;;
38603;SDS011;24924;50.054;8.790;2024-01-30T05:33:36;18.38;;;12.25;;
38603;SDS011;24924;50.054;8.790;2024-01-30T05:36:02;19.83;;;12.32;;
38603;SDS011;24924;50.054;8.790;2024-01-30T05:38:28;17.67;;;11.67;;
38603;SDS011;24924;50.054;8.790;2024-01-30T05:40:54;17.73;;;12.18;;
38603;SDS011;24924;50.054;8.790;2024-01-30T05:43:20;22.95;;;13.02;;
38603;SDS011;24924;50.054;8.790;2024-01-30T05:45:46;19.20;;;12.00;;
38603;SDS011;24924;50.054;8.790;2024-01-30T05:48:12;19.55;;;12.60;;
38603;SDS011;24924;50.054;8.790;2024-01-30T05:50:38;20.98;;;12.68;;
38603;SDS011;24924;50.054;8.790;2024-01-30T05:53:03;18.23;;;12.23;;
38603;SDS011;24924;50.054;8.790;2024-01-30T05:55:29;19.25;;;12.50;;
38603;SDS011;24924;50.054;8.790;2024-01-30T05:57:55;19.07;;;12.83;;
38603;SDS011;24924;50.054;8.790;2024-01-30T06:00:20;17.75;;;11.15;;
38603;SDS011;24924;50.054;8.790;2024-01-30T06:02:46;20.57;;;12.20;;
38603;SDS011;24924;50.054;8.790;2024-01-30T06:05:12;21.17;;;11.35;;
38603;SDS011;24924;50.054;8.790;2024-01-30T06:07:38;16.95;;;11.07;;
38603;SDS011;24924;50.054;8.790;2024-01-30T06:10:04;19.30;;;11.57;;
38603;SDS011;24924;50.054;8.790;2024-01-30T06:12:30;16.13;;;10.80;;
38603;SDS011;24924;50.054;8.790;2024-01-30T06:14:56;17.70;;;11.25;;
38603;SDS011;24924;50.054;8.790;2024-01-30T06:17:23;18.08;;;11.93;;
38603;SDS011;24924;50.054;8.790;2024-01-30T06:19:49;16.80;;;10.67;;
38603;SDS011;24924;50.054;8.790;2024-01-30T06:22:15;17.67;;;10.85;;
38603;SDS011;24924;50.054;8.790;2024-01-30T06:24:41;18.15;;;11.73;;
38603;SDS011;24924;50.054;8.790;2024-01-30T06:27:10;16.02;;;11.20;;
38603;SDS011;24924;50.054;8.790;2024-01-30T06:29:36;18.75;;;12.15;;
38603;SDS011;24924;50.054;8.790;2024-01-30T06:32:01;17.27;;;12.30;;
38603;SDS011;24924;50.054;8.790;2024-01-30T06:34:27;17.63;;;11.88;;
38603;SDS011;24924;50.054;8.790;2024-01-30T06:36:53;19.67;;;12.20;;
38603;SDS011;24924;50.054;8.790;2024-01-30T06:39:19;18.45;;;11.85;;
38603;SDS011;24924;50.054;8.790;2024-01-30T06:41:44;20.37;;;12.10;;
38603;SDS011;24924;50.054;8.790;2024-01-30T06:44:11;18.45;;;12.02;;
38603;SDS011;24924;50.054;8.790;2024-01-30T06:46:38;18.02;;;11.68;;
38603;SDS011;24924;50.054;8.790;2024-01-30T06:49:04;19.13;;;12.45;;
38603;SDS011;24924;50.054;8.790;2024-01-30T06:51:30;19.13;;;12.97;;
38603;SDS011;24924;50.054;8.790;2024-01-30T06:53:56;19.50;;;12.02;;
38603;SDS011;24924;50.054;8.790;2024-01-30T06:56:21;17.15;;;12.10;;
38603;SDS011;24924;50.054;8.790;2024-01-30T06:58:48;25.57;;;13.03;;
38603;SDS011;24924;50.054;8.790;2024-01-30T07:01:15;20.35;;;13.45;;
38603;SDS011;24924;50.054;8.790;2024-01-30T07:03:41;20.88;;;12.57;;
38603;SDS011;24924;50.054;8.790;2024-01-30T07:06:07;18.95;;;12.68;;
38603;SDS011;24924;50.054;8.790;2024-01-30T07:08:33;21.97;;;14.17;;
38603;SDS011;24924;50.054;8.790;2024-01-30T07:10:58;22.85;;;12.90;;
38603;SDS011;24924;50.054;8.790;2024-01-30T07:13:24;20.23;;;13.10;;
38603;SDS011;24924;50.054;8.790;2024-01-30T07:15:50;18.17;;;12.20;;
38603;SDS011;24924;50.054;8.790;2024-01-30T07:18:15;22.83;;;13.23;;
38603;SDS011;24924;50.054;8.790;2024-01-30T07:20:41;19.15;;;12.63;;
38603;SDS011;24924;50.054;8.790;2024-01-30T07:23:11;21.27;;;13.47;;
38603;SDS011;24924;50.054;8.790;2024-01-30T07:25:39;19.02;;;12.50;;
38603;SDS011;24924;50.054;8.790;2024-01-30T07:28:06;22.17;;;12.73;;
38603;SDS011;24924;50.054;8.790;2024-01-30T07:30:34;21.52;;;12.60;;
38603;SDS011;24924;50.054;8.790;2024-01-30T07:33:00;19.02;;;12.68;;
38603;SDS011;24924;50.054;8.790;2024-01-30T07:35:26;19.67;;;12.20;;
38603;SDS011;24924;50.054;8.790;2024-01-30T07:37:51;19.57;;;13.10;;
38603;SDS011;24924;50.054;8.790;2024-01-30T07:40:17;21.50;;;12.93;;
38603;SDS011;24924;50.054;8.790;2024-01-30T07:42:43;19.30;;;11.37;;
38603;SDS011;24924;50.054;8.790;2024-01-30T07:45:08;19.20;;;11.97;;
38603;SDS011;24924;50.054;8.790;2024-01-30T07:47:34;19.97;;;12.43;;
38603;SDS011;24924;50.054;8.790;2024-01-30T07:50:00;16.88;;;11.82;;
38603;SDS011;24924;50.054;8.790;2024-01-30T07:52:26;20.27;;;12.37;;
38603;SDS011;24924;50.054;8.790;2024-01-30T07:54:51;18.50;;;12.18;;
38603;SDS011;24924;50.054;8.790;2024-01-30T07:57:17;18.13;;;11.93;;
38603;SDS011;24924;50.054;8.790;2024-01-30T07:59:43;19.03;;;13.17;;
38603;SDS011;24924;50.054;8.790;2024-01-30T08:02:10;21.92;;;13.00;;
38603;SDS011;24924;50.054;8.790;2024-01-30T08:04:37;18.10;;;12.45;;
38603;SDS011;24924;50.054;8.790;2024-01-30T08:07:02;18.70;;;12.50;;
38603;SDS011;24924;50.054;8.790;2024-01-30T08:09:28;18.92;;;12.63;;
38603;SDS011;24924;50.054;8.790;2024-01-30T08:11:53;20.70;;;12.90;;
38603;SDS011;24924;50.054;8.790;2024-01-30T08:14:19;21.05;;;12.73;;
38603;SDS011;24924;50.054;8.790;2024-01-30T08:16:45;21.20;;;13.93;;
38603;SDS011;24924;50.054;8.790;2024-01-30T08:19:10;20.00;;;13.20;;
38603;SDS011;24924;50.054;8.790;2024-01-30T08:21:36;21.07;;;13.73;;
38603;SDS011;24924;50.054;8.790;2024-01-30T08:24:05;21.10;;;13.50;;
38603;SDS011;24924;50.054;8.790;2024-01-30T08:26:31;21.33;;;13.13;;
38603;SDS011;24924;50.054;8.790;2024-01-30T08:28:58;24.73;;;12.73;;
38603;SDS011;24924;50.054;8.790;2024-01-30T08:31:23;21.50;;;12.32;;
38603;SDS011;24924;50.054;8.790;2024-01-30T08:33:49;18.65;;;11.98;;
38603;SDS011;24924;50.054;8.790;2024-01-30T08:36:16;19.38;;;13.02;;
38603;SDS011;24924;50.054;8.790;2024-01-30T08:38:42;18.92;;;12.60;;
38603;SDS011;24924;50.054;8.790;2024-01-30T08:41:08;19.13;;;12.80;;
38603;SDS011;24924;50.054;8.790;2024-01-30T08:43:34;19.20;;;12.02;;
38603;SDS011;24924;50.054;8.790;2024-01-30T08:45:59;21.03;;;13.60;;
38603;SDS011;24924;50.054;8.790;2024-01-30T08:48:25;18.48;;;11.68;;
38603;SDS011;24924;50.054;8.790;2024-01-30T08:50:51;18.75;;;12.40;;
38603;SDS011;24924;50.054;8.790;2024-01-30T08:53:17;17.87;;;12.40;;
38603;SDS011;24924;50.054;8.790;2024-01-30T08:55:43;22.95;;;12.85;;
38603;SDS011;24924;50.054;8.790;2024-01-30T08:58:09;22.33;;;13.27;;
38603;SDS011;24924;50.054;8.790;2024-01-30T09:00:35;20.77;;;13.57;;
38603;SDS011;24924;50.054;8.790;2024-01-30T09:03:01;18.75;;;13.13;;
38603;SDS011;24924;50.054;8.790;2024-01-30T09:05:26;23.27;;;14.13;;
38603;SDS011;24924;50.054;8.790;2024-01-30T09:07:52;18.38;;;12.55;;
38603;SDS011;24924;50.054;8.790;2024-01-30T09:10:18;18.30;;;12.57;;
38603;SDS011;24924;50.054;8.790;2024-01-30T09:12:44;19.33;;;13.05;;
38603;SDS011;24924;50.054;8.790;2024-01-30T09:15:10;21.35;;;12.93;;
38603;SDS011;24924;50.054;8.790;2024-01-30T09:17:36;19.10;;;12.77;;
38603;SDS011;24924;50.054;8.790;2024-01-30T09:20:02;19.80;;;12.45;;
38603;SDS011;24924;50.054;8.790;2024-01-30T09:22:27;19.48;;;13.18;;
38603;SDS011;24924;50.054;8.790;2024-01-30T09:24:53;20.83;;;13.13;;
38603;SDS011;24924;50.054;8.790;2024-01-30T09:27:19;19.53;;;13.33;;
38603;SDS011;24924;50.054;8.790;2024-01-30T09:29:45;20.73;;;13.43;;
38603;SDS011;24924;50.054;8.790;2024-01-30T09:32:11;22.25;;;13.18;;
38603;SDS011;24924;50.054;8.790;2024-01-30T09:34:36;21.00;;;13.83;;
38603;SDS011;24924;50.054;8.790;2024-01-30T09:37:04;23.15;;;14.98;;
38603;SDS011;24924;50.054;8.790;2024-01-30T09:39:30;22.83;;;15.30;;
38603;SDS011;24924;50.054;8.790;2024-01-30T09:42:07;21.90;;;15.40;;
38603;SDS011;24924;50.054;8.790;2024-01-30T09:45:00;22.48;;;15.00;;
38603;SDS011;24924;50.054;8.790;2024-01-30T09:47:30;20.92;;;13.30;;
38603;SDS011;24924;50.054;8.790;2024-01-30T09:49:57;19.60;;;13.93;;
38603;SDS011;24924;50.054;8.790;2024-01-30T09:52:24;20.33;;;12.97;;
38603;SDS011;24924;50.054;8.790;2024-01-30T09:54:49;19.95;;;13.00;;
38603;SDS011;24924;50.054;8.790;2024-01-30T09:57:17;17.08;;;11.82;;
38603;SDS011;24924;50.054;8.790;2024-01-30T09:59:43;18.87;;;12.60;;
38603;SDS011;24924;50.054;8.790;2024-01-30T10:02:09;19.05;;;13.35;;
38603;SDS011;24924;50.054;8.790;2024-01-30T10:32:26;11.95;;;5.88;;
38603;SDS011;24924;50.054;8.790;2024-01-30T10:34:52;7.93;;;5.37;;
38603;SDS011;24924;50.054;8.790;2024-01-30T10:37:18;9.60;;;5.57;;
38603;SDS011;24924;50.054;8.790;2024-01-30T10:39:46;8.88;;;5.43;;
38603;SDS011;24924;50.054;8.790;2024-01-30T10:42:12;10.07;;;5.47;;
38603;SDS011;24924;50.054;8.790;2024-01-30T10:47:28;10.40;;;5.25;;
38603;SDS011;24924;50.054;8.790;2024-01-30T10:49:54;10.03;;;5.33;;
38603;SDS011;24924;50.054;8.790;2024-01-30T10:52:21;8.18;;;5.30;;
38603;SDS011;24924;50.054;8.790;2024-01-30T10:54:49;9.70;;;5.63;;
38603;SDS011;24924;50.054;8.790;2024-01-30T10:57:16;10.15;;;4.88;;
38603;SDS011;24924;50.054;8.790;2024-01-30T10:59:42;9.23;;;5.30;;
38603;SDS011;24924;50.054;8.790;2024-01-30T11:02:09;7.93;;;5.10;;
38603;SDS011;24924;50.054;8.790;2024-01-30T11:04:40;9.52;;;5.50;;
38603;SDS011;24924;50.054;8.790;2024-01-30T11:07:19;8.35;;;5.50;;
38603;SDS011;24924;50.054;8.790;2024-01-30T11:09:50;9.13;;;5.22;;
38603;SDS011;24924;50.054;8.790;2024-01-30T11:12:21;9.50;;;5.13;;
38603;SDS011;24924;50.054;8.790;2024-01-30T11:15:12;12.03;;;5.20;;
38603;SDS011;24924;50.054;8.790;2024-01-30T11:17:58;10.02;;;5.20;;
38603;SDS011;24924;50.054;8.790;2024-01-30T11:20:30;9.20;;;5.47;;
38603;SDS011;24924;50.054;8.790;2024-01-30T11:22:56;9.25;;;6.07;;
38603;SDS011;24924;50.054;8.790;2024-01-30T11:25:23;12.35;;;5.60;;
38603;SDS011;24924;50.054;8.790;2024-01-30T11:27:51;8.77;;;5.63;;
38603;SDS011;24924;50.054;8.790;2024-01-30T11:35:34;9.00;;;5.45;;
38603;SDS011;24924;50.054;8.790;2024-01-30T11:38:01;11.35;;;5.75;;
38603;SDS011;24924;50.054;8.790;2024-01-30T11:40:28;9.77;;;5.93;;
38603;SDS011;24924;50.054;8.790;2024-01-30T11:42:55;11.43;;;6.20;;
38603;SDS011;24924;50.054;8.790;2024-01-30T11:45:23;9.52;;;5.88;;
38603;SDS011;24924;50.054;8.790;2024-01-30T11:47:48;11.20;;;5.87;;
38603;SDS011;24924;50.054;8.790;2024-01-30T11:50:14;9.52;;;5.72;;
38603;SDS011;24924;50.054;8.790;2024-01-30T11:52:40;10.88;;;5.57;;
38603;SDS011;24924;50.054;8.790;2024-01-30T11:55:06;9.57;;;5.53;;
38603;SDS011;24924;50.054;8.790;2024-01-30T11:57:33;11.10;;;5.70;;
38603;SDS011;24924;50.054;8.790;2024-01-30T12:00:01;9.95;;;5.72;;
38603;SDS011;24924;50.054;8.790;2024-01-30T12:02:29;8.48;;;5.65;;
38603;SDS011;24924;50.054;8.790;2024-01-30T12:04:55;9.63;;;5.63;;
38603;SDS011;24924;50.054;8.790;2024-01-30T12:07:21;9.47;;;5.70;;
38603;SDS011;24924;50.054;8.790;2024-01-30T12:09:53;9.15;;;5.60;;
38603;SDS011;24924;50.054;8.790;2024-01-30T12:12:21;10.65;;;5.65;;
38603;SDS011;24924;50.054;8.790;2024-01-30T12:14:49;9.85;;;6.00;;
38603;SDS011;24924;50.054;8.790;2024-01-30T12:17:28;9.47;;;5.70;;
38603;SDS011;24924;50.054;8.790;2024-01-30T12:20:13;7.55;;;5.43;;
38603;SDS011;24924;50.054;8.790;2024-01-30T12:22:46;11.50;;;5.07;;
38603;SDS011;24924;50.054;8.790;2024-01-30T12:25:15;8.50;;;5.43;;
38603;SDS011;24924;50.054;8.790;2024-01-30T12:27:42;8.57;;;5.60;;
38603;SDS011;24924;50.054;8.790;2024-01-30T12:30:12;9.20;;;5.50;;
38603;SDS011;24924;50.054;8.790;2024-01-30T12:32:42;7.57;;;5.47;;
38603;SDS011;24924;50.054;8.790;2024-01-30T12:35:09;8.50;;;5.53;;
38603;SDS011;24924;50.054;8.790;2024-01-30T12:37:35;8.13;;;5.00;;
38603;SDS011;24924;50.054;8.790;2024-01-30T12:40:02;10.02;;;5.57;;
38603;SDS011;24924;50.054;8.790;2024-01-30T12:42:28;11.20;;;5.30;;
38603;SDS011;24924;50.054;8.790;2024-01-30T12:44:53;10.50;;;5.90;;
38603;SDS011;24924;50.054;8.790;2024-01-30T12:47:21;9.87;;;5.77;;
38603;SDS011;24924;50.054;8.790;2024-01-30T12:49:47;11.27;;;5.40;;
38603;SDS011;24924;50.054;8.790;2024-01-30T12:52:13;11.73;;;5.90;;
38603;SDS011;24924;50.054;8.790;2024-01-30T12:54:41;8.82;;;5.32;;
38603;SDS011;24924;50.054;8.790;2024-01-30T12:57:07;12.60;;;5.80;;
38603;SDS011;24924;50.054;8.790;2024-01-30T12:59:32;11.40;;;5.38;;
38603;SDS011;24924;50.054;8.790;2024-01-30T13:02:00;10.13;;;5.53;;
38603;SDS011;24924;50.054;8.790;2024-01-30T13:04:27;10.70;;;5.50;;
38603;SDS011;24924;50.054;8.790;2024-01-30T13:06:53;14.18;;;5.95;;
38603;SDS011;24924;50.054;8.790;2024-01-30T13:09:18;9.70;;;5.53;;
38603;SDS011;24924;50.054;8.790;2024-01-30T13:11:45;9.43;;;5.35;;
38603;SDS011;24924;50.054;8.790;2024-01-30T13:14:11;9.55;;;5.65;;
38603;SDS011;24924;50.054;8.790;2024-01-30T13:16:37;12.20;;;5.50;;
38603;SDS011;24924;50.054;8.790;2024-01-30T13:19:03;13.10;;;5.30;;
38603;SDS011;24924;50.054;8.790;2024-01-30T13:21:28;12.77;;;5.40;;
38603;SDS011;24924;50.054;8.790;2024-01-30T13:23:54;13.20;;;5.40;;
38603;SDS011;24924;50.054;8.790;2024-01-30T13:26:20;10.27;;;5.30;;
38603;SDS011;24924;50.054;8.790;2024-01-30T13:28:46;11.37;;;5.50;;
38603;SDS011;24924;50.054;8.790;2024-01-30T13:31:12;10.73;;;5.20;;
38603;SDS011;24924;50.054;8.790;2024-01-30T13:33:41;12.88;;;5.18;;
38603;SDS011;24924;50.054;8.790;2024-01-30T13:36:07;10.97;;;5.20;;
38603;SDS011;24924;50.054;8.790;2024-01-30T13:38:35;6.78;;;4.65;;
38603;SDS011;24924;50.054;8.790;2024-01-30T13:41:01;14.32;;;5.25;;
38603;SDS011;24924;50.054;8.790;2024-01-30T13:43:28;8.53;;;5.50;;
38603;SDS011;24924;50.054;8.790;2024-01-30T13:45:53;9.27;;;5.10;;
38603;SDS011;24924;50.054;8.790;2024-01-30T13:48:19;7.88;;;4.97;;
38603;SDS011;24924;50.054;8.790;2024-01-30T13:50:45;9.37;;;4.97;;
38603;SDS011;24924;50.054;8.790;2024-01-30T13:53:11;10.98;;;5.20;;
38603;SDS011;24924;50.054;8.790;2024-01-30T13:55:37;9.60;;;5.47;;
38603;SDS011;24924;50.054;8.790;2024-01-30T13:58:04;10.18;;;5.40;;
38603;SDS011;24924;50.054;8.790;2024-01-30T14:00:30;9.00;;;4.70;;
38603;SDS011;24924;50.054;8.790;2024-01-30T14:02:55;9.48;;;5.40;;
38603;SDS011;24924;50.054;8.790;2024-01-30T14:05:22;8.97;;;5.23;;
38603;SDS011;24924;50.054;8.790;2024-01-30T14:07:49;9.80;;;5.25;;
38603;SDS011;24924;50.054;8.790;2024-01-30T14:10:15;7.95;;;4.78;;
38603;SDS011;24924;50.054;8.790;2024-01-30T14:12:41;8.93;;;5.05;;
38603;SDS011;24924;50.054;8.790;2024-01-30T14:15:08;12.50;;;5.03;;
38603;SDS011;24924;50.054;8.790;2024-01-30T14:17:35;12.10;;;4.85;;
38603;SDS011;24924;50.054;8.790;2024-01-30T14:20:02;10.45;;;5.18;;
38603;SDS011;24924;50.054;8.790;2024-01-30T14:22:30;10.27;;;5.13;;
38603;SDS011;24924;50.054;8.790;2024-01-30T14:24:57;9.98;;;5.35;;
38603;SDS011;24924;50.054;8.790;2024-01-30T14:27:22;10.50;;;5.20;;
38603;SDS011;24924;50.054;8.790;2024-01-30T14:29:48;11.02;;;5.50;;
38603;SDS011;24924;50.054;8.790;2024-01-30T14:32:14;9.00;;;5.20;;
38603;SDS011;24924;50.054;8.790;2024-01-30T14:34:39;9.07;;;5.37;;
38603;SDS011;24924;50.054;8.790;2024-01-30T14:37:05;10.50;;;4.60;;
38603;SDS011;24924;50.054;8.790;2024-01-30T14:39:31;10.52;;;4.75;;
38603;SDS011;24924;50.054;8.790;2024-01-30T14:41:57;9.20;;;4.77;;
38603;SDS011;24924;50.054;8.790;2024-01-30T14:44:23;9.18;;;5.25;;
38603;SDS011;24924;50.054;8.790;2024-01-30T14:46:49;9.80;;;5.00;;
38603;SDS011;24924;50.054;8.790;2024-01-30T14:49:15;8.43;;;5.03;;
38603;SDS011;24924;50.054;8.790;2024-01-30T14:51:40;8.93;;;5.25;;
38603;SDS011;24924;50.054;8.790;2024-01-30T14:54:07;9.60;;;5.35;;
38603;SDS011;24924;50.054;8.790;2024-01-30T14:56:32;7.20;;;4.83;;
38603;SDS011;24924;50.054;8.790;2024-01-30T14:58:58;11.68;;;5.00;;
38603;SDS011;24924;50.054;8.790;2024-01-30T15:01:25;8.07;;;5.32;;